Time;durP1;ratioP1;P1;durP2;ratioP2;P2;SDS_P1;SDS_P2;PMS_P1;PMS_P2;Temp;Humidity;BMP_temperature;BMP_pressure;BME280_temperature;BME280_humidity;BME280_pressure;Samples;Min_cycle;Max_cycle;Signal;HPM_P1;HPM_P2
2021/10/01 00:01:42;;;;;;;3.08;0.90;;;18.70;74.50;;;;;;5093188;28;20020;-77
2021/10/01 00:04:08;;;;;;;3.40;0.65;;;18.70;74.40;;;;;;5092786;28;20095;-77
2021/10/01 00:06:34;;;;;;;1.98;0.60;;;18.70;74.30;;;;;;5092199;28;20186;-77
2021/10/01 00:08:59;;;;;;;2.58;0.80;;;18.70;74.20;;;;;;5092585;28;20099;-76
2021/10/01 00:11:25;;;;;;;3.38;0.90;;;18.70;74.10;;;;;;5092554;28;20120;-78
2021/10/01 00:13:51;;;;;;;2.80;0.80;;;18.70;74.10;;;;;;5092686;28;20445;-77
2021/10/01 00:16:16;;;;;;;2.05;0.90;;;18.70;73.90;;;;;;5092829;28;20039;-78
2021/10/01 00:18:45;;;;;;;2.70;0.70;;;18.70;73.80;;;;;;5108319;28;20062;-76
2021/10/01 00:21:11;;;;;;;1.85;1.08;;;18.70;73.70;;;;;;5092512;28;20103;-77
2021/10/01 00:23:36;;;;;;;3.42;0.80;;;18.70;73.70;;;;;;5092200;28;20082;-78
2021/10/01 00:26:03;;;;;;;2.15;0.90;;;18.70;73.60;;;;;;5092216;28;20024;-78
2021/10/01 00:28:29;;;;;;;3.38;0.82;;;18.70;73.50;;;;;;5107680;28;20044;-77
2021/10/01 00:30:55;;;;;;;2.58;0.73;;;18.70;73.50;;;;;;5090783;28;20073;-77
2021/10/01 00:33:21;;;;;;;2.90;1.05;;;18.60;73.30;;;;;;5092154;28;20077;-77
2021/10/01 00:35:47;;;;;;;2.72;0.70;;;18.70;73.40;;;;;;5092003;28;20024;-77
2021/10/01 00:38:13;;;;;;;3.03;0.60;;;18.60;73.20;;;;;;5092458;28;20551;-75
2021/10/01 00:40:38;;;;;;;2.38;0.73;;;18.60;73.20;;;;;;5107493;28;20024;-77
2021/10/01 00:43:04;;;;;;;2.05;0.70;;;18.70;73.10;;;;;;5092143;28;20069;-75
2021/10/01 00:45:30;;;;;;;3.15;0.77;;;18.60;73.00;;;;;;5092026;28;20012;-78
2021/10/01 00:47:56;;;;;;;2.03;0.60;;;18.60;73.10;;;;;;5091740;28;20571;-77
2021/10/01 00:50:21;;;;;;;1.73;0.60;;;18.60;73.10;;;;;;5091091;28;20116;-78
2021/10/01 00:52:49;;;;;;;2.83;0.70;;;18.60;73.00;;;;;;5091864;28;20502;-78
2021/10/01 00:55:15;;;;;;;3.50;1.17;;;18.60;72.90;;;;;;5092194;28;20024;-78
2021/10/01 00:57:41;;;;;;;2.15;0.80;;;18.60;72.90;;;;;;5091345;28;20080;-77
2021/10/01 01:00:14;;;;;;;3.63;0.80;;;18.60;72.80;;;;;;5107226;28;20023;-76
2021/10/01 01:02:41;;;;;;;2.03;0.80;;;18.60;72.80;;;;;;5091072;28;20051;-77
2021/10/01 01:05:07;;;;;;;2.72;0.90;;;18.60;72.70;;;;;;5091529;28;20024;-77
2021/10/01 01:07:50;;;;;;;2.47;0.52;;;18.60;72.60;;;;;;5090079;28;20054;-76
2021/10/01 01:11:03;;;;;;;2.92;0.90;;;18.60;72.60;;;;;;5092023;28;20039;-78
2021/10/01 01:13:56;;;;;;;3.58;0.90;;;18.60;72.50;;;;;;5051960;28;20055;-77
2021/10/01 01:16:25;;;;;;;1.63;0.80;;;18.50;72.50;;;;;;5069066;28;20041;-78
2021/10/01 01:18:55;;;;;;;2.95;0.93;;;18.50;72.40;;;;;;5096541;28;20036;-77
2021/10/01 01:21:35;;;;;;;1.52;0.68;;;18.50;72.40;;;;;;5090861;28;20259;-77
2021/10/01 01:24:19;;;;;;;3.85;0.75;;;18.60;72.40;;;;;;5091421;28;20028;-77
2021/10/01 01:27:17;;;;;;;2.70;0.88;;;18.60;72.30;;;;;;5107129;28;20111;-77
2021/10/01 01:30:10;;;;;;;2.33;0.68;;;18.50;72.30;;;;;;5091548;28;20032;-77
2021/10/01 01:32:39;;;;;;;1.98;0.77;;;18.50;72.20;;;;;;5091201;28;20016;-77
2021/10/01 01:35:26;;;;;;;3.45;0.85;;;18.50;72.10;;;;;;5091274;28;20023;-77
2021/10/01 01:37:58;;;;;;;2.28;0.70;;;18.50;72.10;;;;;;5091431;28;20382;-78
2021/10/01 01:40:27;;;;;;;2.50;0.70;;;18.50;72.00;;;;;;5091104;28;20108;-77
2021/10/01 01:42:56;;;;;;;2.55;0.70;;;18.60;72.20;;;;;;5091139;28;20020;-77
2021/10/01 01:45:22;;;;;;;3.92;0.60;;;18.50;72.00;;;;;;5090884;28;20024;-77
2021/10/01 01:47:49;;;;;;;1.20;0.70;;;18.50;72.00;;;;;;5091316;28;20479;-78
2021/10/01 01:50:16;;;;;;;1.23;0.60;;;18.50;72.00;;;;;;5091182;28;20446;-78
2021/10/01 01:52:43;;;;;;;2.83;0.68;;;18.50;72.00;;;;;;5090966;28;20085;-78
2021/10/01 01:55:11;;;;;;;1.63;0.50;;;18.50;71.90;;;;;;5091372;28;20035;-77
2021/10/01 01:57:38;;;;;;;2.38;0.60;;;18.50;71.90;;;;;;5090737;28;20031;-77
2021/10/01 02:00:05;;;;;;;2.50;0.70;;;18.50;71.90;;;;;;5106797;28;20023;-77
2021/10/01 02:02:33;;;;;;;3.80;0.82;;;18.50;71.80;;;;;;5092752;28;20030;-77
2021/10/01 02:04:59;;;;;;;2.38;0.88;;;18.50;71.90;;;;;;5095286;28;20029;-78
2021/10/01 02:07:26;;;;;;;1.85;0.60;;;18.50;71.70;;;;;;5094584;28;20046;-77
2021/10/01 02:09:53;;;;;;;2.35;0.60;;;18.50;71.70;;;;;;5110587;28;20028;-75
2021/10/01 02:12:19;;;;;;;3.33;0.73;;;18.50;71.70;;;;;;5094908;28;20403;-75
2021/10/01 02:14:48;;;;;;;2.28;0.63;;;18.50;71.60;;;;;;5095382;28;20020;-77
2021/10/01 02:17:14;;;;;;;1.63;0.68;;;18.40;71.60;;;;;;5095355;28;20106;-77
2021/10/01 02:19:42;;;;;;;2.92;0.60;;;18.40;71.60;;;;;;5094641;28;20502;-78
2021/10/01 02:22:10;;;;;;;4.50;0.70;;;18.40;71.50;;;;;;5093632;28;20656;-77
2021/10/01 02:24:36;;;;;;;0.90;0.50;;;18.40;71.50;;;;;;5110314;28;20101;-76
2021/10/01 02:27:18;;;;;;;1.50;0.60;;;18.40;71.50;;;;;;5094567;28;20503;-76
2021/10/01 02:30:02;;;;;;;2.80;0.75;;;18.40;71.50;;;;;;5094597;28;20058;-77
2021/10/01 02:32:38;;;;;;;2.20;0.82;;;18.40;71.50;;;;;;5094511;28;20034;-77
2021/10/01 02:35:07;;;;;;;2.08;0.80;;;18.40;71.50;;;;;;5110357;28;20035;-77
2021/10/01 02:37:33;;;;;;;2.33;0.70;;;18.40;71.50;;;;;;5094242;28;20026;-78
2021/10/01 02:40:00;;;;;;;3.25;0.85;;;18.40;71.50;;;;;;5094559;28;20031;-77
2021/10/01 02:42:27;;;;;;;1.42;0.65;;;18.40;71.80;;;;;;5094264;28;20024;-77
2021/10/01 02:44:54;;;;;;;2.25;0.73;;;18.40;71.40;;;;;;5094239;28;20032;-77
2021/10/01 02:47:24;;;;;;;2.72;0.90;;;18.40;71.40;;;;;;5094277;28;20027;-77
2021/10/01 02:49:50;;;;;;;2.33;0.90;;;18.40;71.40;;;;;;5094143;28;20399;-78
2021/10/01 02:52:28;;;;;;;2.58;0.82;;;18.40;71.30;;;;;;5094428;28;20024;-77
2021/10/01 02:55:15;;;;;;;2.15;0.80;;;18.40;71.30;;;;;;5109651;28;20020;-77
2021/10/01 02:57:59;;;;;;;3.08;0.90;;;18.40;71.30;;;;;;5109431;28;20062;-78
2021/10/01 03:00:25;;;;;;;2.13;0.70;;;18.40;71.20;;;;;;5109175;28;20024;-77
2021/10/01 03:02:53;;;;;;;1.63;0.80;;;18.40;71.20;;;;;;5093926;28;20032;-78
2021/10/01 03:05:20;;;;;;;2.30;0.80;;;18.40;71.20;;;;;;5093496;28;20051;-78
2021/10/01 03:07:47;;;;;;;2.55;0.82;;;18.40;71.20;;;;;;5093911;28;20020;-78
2021/10/01 03:10:13;;;;;;;3.47;0.63;;;18.40;71.20;;;;;;5094331;28;20034;-78
2021/10/01 03:12:41;;;;;;;3.65;0.80;;;18.40;71.20;;;;;;5093637;28;20087;-76
2021/10/01 03:15:08;;;;;;;2.63;0.90;;;18.30;71.00;;;;;;5093057;28;20032;-77
2021/10/01 03:17:35;;;;;;;2.92;0.82;;;18.40;71.20;;;;;;5092103;28;20383;-77
2021/10/01 03:20:01;;;;;;;2.35;0.73;;;18.40;71.10;;;;;;5093480;28;20028;-77
2021/10/01 03:22:31;;;;;;;2.65;0.70;;;18.40;71.10;;;;;;5093552;28;20013;-76
2021/10/01 03:25:01;;;;;;;1.80;0.80;;;18.40;71.10;;;;;;5093636;28;20149;-77
2021/10/01 03:27:30;;;;;;;2.10;0.80;;;18.30;71.00;;;;;;5093111;28;20016;-77
2021/10/01 03:30:01;;;;;;;2.88;0.80;;;18.40;71.00;;;;;;5093350;28;20070;-77
2021/10/01 03:32:30;;;;;;;1.20;0.60;;;18.30;71.00;;;;;;5093033;28;20070;-77
2021/10/01 03:34:56;;;;;;;2.65;0.75;;;18.30;71.00;;;;;;5093446;28;20019;-78
2021/10/01 03:37:22;;;;;;;2.60;0.80;;;18.30;70.90;;;;;;5108912;28;20491;-77
2021/10/01 03:39:59;;;;;;;2.85;0.80;;;18.30;70.90;;;;;;5093306;28;20099;-77
2021/10/01 03:42:26;;;;;;;2.00;0.75;;;18.30;70.90;;;;;;5093145;28;20028;-77
2021/10/01 03:44:52;;;;;;;2.90;0.88;;;18.30;70.80;;;;;;5093379;28;20035;-78
2021/10/01 03:47:19;;;;;;;1.95;0.57;;;18.30;70.80;;;;;;5108639;28;20026;-78
2021/10/01 03:49:45;;;;;;;2.53;0.80;;;18.30;70.80;;;;;;5108464;28;20427;-76
2021/10/01 03:52:12;;;;;;;2.47;0.88;;;18.30;70.80;;;;;;5092785;28;20024;-78
2021/10/01 03:54:39;;;;;;;1.65;0.70;;;18.30;70.80;;;;;;5092944;28;20399;-78
2021/10/01 03:57:05;;;;;;;2.90;0.80;;;18.30;70.70;;;;;;5093083;28;20020;-77
2021/10/01 03:59:30;;;;;;;4.15;0.85;;;18.30;70.70;;;;;;5091266;28;20057;-78
2021/10/01 04:01:56;;;;;;;4.28;0.95;;;18.30;70.70;;;;;;5090847;28;20107;-78
2021/10/01 04:04:22;;;;;;;2.28;0.70;;;18.30;70.60;;;;;;5092181;28;20098;-77
2021/10/01 04:06:47;;;;;;;2.70;1.00;;;18.30;70.70;;;;;;5092370;28;20438;-78
2021/10/01 04:09:13;;;;;;;2.25;1.00;;;18.30;70.60;;;;;;5092609;28;20028;-78
2021/10/01 04:11:39;;;;;;;1.67;0.85;;;18.30;70.60;;;;;;5091810;28;20040;-79
2021/10/01 04:14:06;;;;;;;3.38;0.98;;;18.20;70.50;;;;;;5092072;28;20495;-78
2021/10/01 04:16:32;;;;;;;3.28;0.95;;;18.20;70.60;;;;;;5090648;28;20032;-77
2021/10/01 04:18:58;;;;;;;2.72;0.65;;;18.20;70.50;;;;;;5092127;28;20024;-78
2021/10/01 04:21:24;;;;;;;2.33;0.85;;;18.20;70.60;;;;;;5091722;28;20020;-78
2021/10/01 04:23:55;;;;;;;2.42;0.95;;;18.20;70.50;;;;;;5092470;28;20028;-78
2021/10/01 04:26:21;;;;;;;2.35;0.80;;;18.20;70.50;;;;;;5090623;28;20035;-78
2021/10/01 04:28:47;;;;;;;2.08;0.85;;;18.20;70.50;;;;;;5092208;28;20032;-79
2021/10/01 04:31:13;;;;;;;3.40;0.70;;;18.20;70.50;;;;;;5091477;28;20411;-78
2021/10/01 04:33:41;;;;;;;1.75;0.65;;;18.20;70.50;;;;;;5091652;28;20109;-77
2021/10/01 04:36:07;;;;;;;2.20;0.80;;;18.20;70.50;;;;;;5092195;28;20784;-78
2021/10/01 04:38:33;;;;;;;2.05;0.60;;;18.20;70.50;;;;;;5090290;28;20031;-79
2021/10/01 04:41:00;;;;;;;2.08;0.90;;;18.20;70.50;;;;;;5091471;28;20034;-79
2021/10/01 04:43:26;;;;;;;3.47;1.02;;;18.20;70.50;;;;;;5086094;28;20024;-79
2021/10/01 04:45:52;;;;;;;1.35;0.70;;;18.20;70.50;;;;;;5090973;28;20522;-80
2021/10/01 04:48:17;;;;;;;4.55;0.77;;;18.20;70.50;;;;;;5089638;28;20024;-80
2021/10/01 04:50:43;;;;;;;2.22;0.70;;;18.20;70.50;;;;;;5091888;28;20050;-79
2021/10/01 04:53:09;;;;;;;1.83;0.77;;;18.20;70.50;;;;;;5091270;28;20020;-78
2021/10/01 04:55:35;;;;;;;2.30;1.00;;;18.20;70.50;;;;;;5091164;28;20035;-78
2021/10/01 04:58:02;;;;;;;2.38;0.63;;;18.20;70.50;;;;;;5089651;28;20028;-78
2021/10/01 05:00:28;;;;;;;2.10;0.82;;;18.20;70.50;;;;;;5090521;28;20479;-79
2021/10/01 05:02:54;;;;;;;2.00;0.82;;;18.20;70.50;;;;;;5090908;28;20024;-78
2021/10/01 05:05:20;;;;;;;1.88;0.82;;;18.20;70.50;;;;;;5091108;28;20032;-77
2021/10/01 05:07:46;;;;;;;2.95;0.93;;;18.20;70.50;;;;;;5091776;28;20038;-77
2021/10/01 05:10:12;;;;;;;3.22;0.80;;;18.20;70.50;;;;;;5091420;28;20515;-77
2021/10/01 05:12:42;;;;;;;3.53;1.00;;;18.20;70.80;;;;;;5089014;28;20039;-78
2021/10/01 05:15:09;;;;;;;2.88;0.82;;;18.10;70.80;;;;;;5090685;28;20028;-76
2021/10/01 05:17:37;;;;;;;3.35;1.13;;;18.20;70.90;;;;;;5090027;28;20115;-78
2021/10/01 05:20:05;;;;;;;1.58;0.60;;;18.20;71.20;;;;;;5091066;28;20031;-76
2021/10/01 05:22:31;;;;;;;5.10;0.70;;;18.20;71.20;;;;;;5090664;28;20032;-76
2021/10/01 05:24:57;;;;;;;3.40;1.20;;;18.20;71.30;;;;;;5090124;28;20046;-76
2021/10/01 05:27:23;;;;;;;5.47;1.05;;;18.20;71.20;;;;;;5090873;28;20059;-77
2021/10/01 05:29:48;;;;;;;1.75;0.60;;;18.20;71.40;;;;;;5090875;28;20040;-76
2021/10/01 05:32:14;;;;;;;3.13;1.17;;;18.20;71.70;;;;;;5091621;28;20016;-76
2021/10/01 05:34:40;;;;;;;3.53;0.73;;;18.20;71.70;;;;;;5090248;28;20435;-76
2021/10/01 05:37:06;;;;;;;3.20;0.88;;;18.20;71.70;;;;;;5090313;28;20024;-77
2021/10/01 05:39:32;;;;;;;1.17;0.57;;;18.20;71.70;;;;;;5090157;28;20020;-77
2021/10/01 05:41:59;;;;;;;1.67;0.85;;;18.20;71.80;;;;;;5090808;28;20039;-78
2021/10/01 05:44:25;;;;;;;1.75;0.75;;;18.20;71.80;;;;;;5090361;28;20044;-78
2021/10/01 05:46:51;;;;;;;3.00;0.70;;;18.20;71.80;;;;;;5089913;28;20028;-79
2021/10/01 05:49:26;;;;;;;4.75;0.95;;;18.20;72.00;;;;;;5090564;28;20008;-82
2021/10/01 05:51:54;;;;;;;5.75;1.00;;;18.20;72.10;;;;;;5091348;28;20111;-82
2021/10/01 05:54:23;;;;;;;4.82;0.90;;;18.20;72.20;;;;;;5088838;28;20035;-77
2021/10/01 05:56:54;;;;;;;3.13;0.80;;;18.20;72.30;;;;;;5090674;28;20032;-81
2021/10/01 05:59:21;;;;;;;2.85;0.60;;;18.20;72.40;;;;;;5089517;28;20023;-76
2021/10/01 06:01:48;;;;;;;14.43;9.18;;;18.20;72.70;;;;;;5091367;28;20035;-77
2021/10/01 06:04:14;;;;;;;6.35;3.17;;;18.20;73.10;;;;;;5091176;28;20028;-80
2021/10/01 06:06:40;;;;;;;9.82;3.92;;;18.20;73.20;;;;;;5089912;28;20043;-78
2021/10/01 06:09:10;;;;;;;7.70;3.63;;;18.20;73.20;;;;;;5090475;28;20024;-77
2021/10/01 06:11:37;;;;;;;7.50;3.45;;;18.20;73.30;;;;;;5089746;28;20043;-77
2021/10/01 06:14:06;;;;;;;10.02;3.47;;;18.20;73.50;;;;;;5090371;28;20123;-78
2021/10/01 06:16:33;;;;;;;7.50;3.20;;;18.20;74.40;;;;;;5086012;28;20047;-77
2021/10/01 06:18:59;;;;;;;5.47;2.70;;;18.20;73.70;;;;;;5090365;28;20016;-81
2021/10/01 06:21:24;;;;;;;5.75;3.03;;;18.20;73.60;;;;;;5089649;28;20036;-75
2021/10/01 06:23:50;;;;;;;7.72;2.20;;;18.20;73.60;;;;;;5090181;28;20153;-77
2021/10/01 06:26:16;;;;;;;5.70;2.20;;;18.20;73.20;;;;;;5091090;28;20024;-76
2021/10/01 06:28:42;;;;;;;8.80;2.67;;;18.20;73.20;;;;;;5090831;28;20035;-76
2021/10/01 06:31:08;;;;;;;11.85;2.20;;;18.20;73.20;;;;;;5090821;28;20039;-76
2021/10/01 06:33:35;;;;;;;5.35;2.08;;;18.20;73.30;;;;;;5090527;28;20031;-81
2021/10/01 06:36:01;;;;;;;9.75;1.98;;;18.20;73.40;;;;;;5090497;28;20028;-80
2021/10/01 06:38:29;;;;;;;7.10;1.77;;;18.20;73.10;;;;;;5090447;28;20057;-77
2021/10/01 06:40:55;;;;;;;5.95;1.80;;;18.30;73.20;;;;;;5090734;28;20111;-77
2021/10/01 06:43:20;;;;;;;7.53;1.88;;;18.20;73.10;;;;;;5090460;28;20147;-77
2021/10/01 06:45:50;;;;;;;3.83;1.70;;;18.20;73.10;;;;;;5091033;28;20027;-78
2021/10/01 07:21:04;;;;;;;5.60;1.45;;;18.20;72.90;;;;;;5082937;28;20028;-77
2021/10/01 08:20:31;;;;;;;5.20;1.00;;;18.30;72.70;;;;;;5092636;28;20039;-85
2021/10/01 08:22:58;;;;;;;5.50;0.90;;;18.30;72.70;;;;;;5091395;28;20028;-81
2021/10/01 08:25:23;;;;;;;3.45;1.00;;;18.40;72.70;;;;;;5092229;28;20023;-83
2021/10/01 08:27:49;;;;;;;4.28;1.65;;;18.30;72.60;;;;;;5092285;28;20036;-81
2021/10/01 08:30:15;;;;;;;4.78;1.10;;;18.30;72.50;;;;;;5092802;28;20028;-77
2021/10/01 08:32:41;;;;;;;6.13;1.13;;;18.40;72.60;;;;;;5091842;28;20442;-76
2021/10/01 08:35:09;;;;;;;2.90;1.10;;;18.40;72.50;;;;;;5092392;28;20055;-80
2021/10/01 08:37:35;;;;;;;2.78;0.93;;;18.30;72.60;;;;;;5091965;28;20023;-79
2021/10/01 08:40:01;;;;;;;4.47;1.02;;;18.30;72.60;;;;;;5092099;28;20099;-78
2021/10/01 08:42:27;;;;;;;5.15;1.00;;;18.30;72.40;;;;;;5091977;28;20479;-79
2021/10/01 08:44:53;;;;;;;4.68;0.90;;;18.40;72.50;;;;;;5090810;28;20022;-77
2021/10/01 08:47:19;;;;;;;4.53;1.13;;;18.40;72.50;;;;;;5091462;28;20082;-78
2021/10/01 08:49:50;;;;;;;2.50;1.00;;;18.40;72.50;;;;;;5090880;28;20381;-77
2021/10/01 08:52:17;;;;;;;2.30;0.98;;;18.40;72.50;;;;;;5092316;28;20074;-79
2021/10/01 08:54:44;;;;;;;5.07;1.30;;;18.40;72.50;;;;;;5092171;28;20020;-79
2021/10/01 08:57:10;;;;;;;4.75;1.05;;;18.40;72.40;;;;;;5092046;28;20542;-78
2021/10/01 08:59:36;;;;;;;4.18;1.15;;;18.40;72.50;;;;;;5091525;28;20032;-79
2021/10/01 09:02:03;;;;;;;3.95;1.13;;;18.50;72.70;;;;;;5092384;28;20036;-80
2021/10/01 09:04:29;;;;;;;3.65;1.08;;;18.40;72.60;;;;;;5091690;28;20450;-80
2021/10/01 09:06:57;;;;;;;2.38;0.95;;;18.50;72.70;;;;;;5090778;28;20379;-79
2021/10/01 09:09:43;;;;;;;4.43;1.00;;;18.50;72.70;;;;;;5091310;28;20035;-79
2021/10/01 09:12:13;;;;;;;;;;;18.40;72.50;;;;;;5089967;28;20031;-80
2021/10/01 09:14:46;;;;;;;2.10;0.70;;;18.50;72.60;;;;;;5091480;28;19911;-79
2021/10/01 09:17:15;;;;;;;4.18;1.15;;;18.50;72.60;;;;;;5091949;28;20440;-79
2021/10/01 09:19:42;;;;;;;7.13;1.10;;;18.40;72.50;;;;;;5089924;28;20483;-79
2021/10/01 09:22:08;;;;;;;5.78;1.42;;;18.50;72.50;;;;;;5091411;28;20028;-79
2021/10/01 09:24:41;;;;;;;3.88;0.90;;;18.50;72.50;;;;;;5091345;28;20043;-80
2021/10/01 09:27:06;;;;;;;3.75;0.85;;;18.50;72.50;;;;;;5091598;28;20885;-80
2021/10/01 09:29:35;;;;;;;4.68;1.45;;;18.50;72.40;;;;;;5090956;28;20039;-80
2021/10/01 09:32:15;;;;;;;6.30;1.83;;;18.50;72.40;;;;;;5091404;28;20056;-80
2021/10/01 09:34:44;;;;;;;7.10;1.30;;;18.50;72.40;;;;;;5091180;28;20115;-79
2021/10/01 09:37:21;;;;;;;3.25;0.90;;;18.50;72.40;;;;;;5091353;28;20447;-80
2021/10/01 09:39:52;;;;;;;5.10;1.00;;;18.50;72.30;;;;;;5091278;28;20399;-80
2021/10/01 09:42:27;;;;;;;3.00;0.75;;;18.50;72.30;;;;;;5091102;28;20047;-78
2021/10/01 09:44:56;;;;;;;2.20;0.60;;;18.60;72.30;;;;;;5091558;28;20030;-79
2021/10/01 09:47:37;;;;;;;3.65;0.82;;;18.60;72.30;;;;;;5089437;28;20028;-80
2021/10/01 09:50:09;;;;;;;3.83;1.02;;;18.60;72.30;;;;;;5091126;28;20039;-78
2021/10/01 09:52:53;;;;;;;3.03;0.90;;;18.60;72.30;;;;;;5090988;28;20486;-80
2021/10/01 09:55:38;;;;;;;2.35;0.80;;;18.60;72.30;;;;;;5090884;28;20054;-80
2021/10/01 09:58:06;;;;;;;2.67;0.80;;;18.60;72.30;;;;;;5090887;28;20016;-79
2021/10/01 10:00:41;;;;;;;2.85;0.60;;;18.60;72.40;;;;;;5089553;28;20133;-80
2021/10/01 10:03:12;;;;;;;2.78;0.88;;;18.60;72.40;;;;;;5091014;28;20836;-80
2021/10/01 10:06:15;;;;;;;1.90;0.70;;;18.60;73.10;;;;;;5090959;28;20038;-78
2021/10/01 10:08:43;;;;;;;3.53;0.90;;;18.60;72.50;;;;;;5090908;28;20498;-80
2021/10/01 10:11:19;;;;;;;3.90;0.80;;;18.60;72.50;;;;;;5090921;28;20029;-80
2021/10/01 10:13:49;;;;;;;6.25;0.90;;;18.60;72.50;;;;;;5091390;28;20357;-78
2021/10/01 10:16:29;;;;;;;4.35;0.77;;;18.60;72.40;;;;;;5091100;28;20024;-80
2021/10/01 10:19:00;;;;;;;3.03;0.70;;;18.60;72.50;;;;;;5090652;28;20036;-78
2021/10/01 10:21:27;;;;;;;2.45;0.80;;;18.60;72.50;;;;;;5090732;28;20110;-78
2021/10/01 10:23:53;;;;;;;2.53;0.82;;;18.70;72.60;;;;;;5093665;28;20127;-75
2021/10/01 10:26:20;;;;;;;3.90;0.73;;;18.70;72.70;;;;;;5094690;28;20024;-75
2021/10/01 10:28:47;;;;;;;4.65;0.95;;;18.70;73.00;;;;;;5093699;28;20098;-75
2021/10/01 10:31:14;;;;;;;3.22;0.80;;;18.70;73.10;;;;;;5094713;28;20032;-77
2021/10/01 10:33:45;;;;;;;3.35;0.80;;;18.70;73.20;;;;;;5097819;28;20495;-77
2021/10/01 10:36:47;;;;;;;2.17;0.73;;;18.70;73.20;;;;;;5094712;28;20551;-77
2021/10/01 10:39:12;;;;;;;6.20;1.05;;;18.70;73.70;;;;;;5094482;28;20387;-77
2021/10/01 10:41:40;;;;;;;5.28;0.85;;;18.70;73.60;;;;;;5093807;28;20028;-78
2021/10/01 10:44:07;;;;;;;0.93;0.55;;;18.70;73.70;;;;;;5094004;28;20055;-78
2021/10/01 10:46:36;;;;;;;3.53;0.90;;;18.70;73.70;;;;;;5093791;28;20048;-79
2021/10/01 10:49:24;;;;;;;4.88;1.13;;;18.70;73.50;;;;;;5093947;28;20142;-79
2021/10/01 10:52:12;;;;;;;2.55;0.60;;;18.70;73.30;;;;;;5094336;28;20055;-77
2021/10/01 10:54:59;;;;;;;2.38;0.80;;;18.70;73.40;;;;;;5093879;28;20103;-75
2021/10/01 10:57:26;;;;;;;3.35;0.73;;;18.70;74.10;;;;;;5093239;28;20130;-76
2021/10/01 11:00:04;;;;;;;2.10;0.70;;;18.70;73.40;;;;;;5093791;28;20020;-76
2021/10/01 11:02:44;;;;;;;3.47;0.75;;;18.70;73.50;;;;;;5093817;28;20114;-76
2021/10/01 11:05:20;;;;;;;4.53;0.80;;;18.70;73.50;;;;;;5093932;28;20468;-77
2021/10/01 11:07:50;;;;;;;4.85;0.70;;;18.70;73.60;;;;;;5094351;28;20035;-75
2021/10/01 11:10:46;;;;;;;2.22;0.70;;;18.70;73.70;;;;;;5092683;28;20023;-73
2021/10/01 11:13:23;;;;;;;8.45;0.98;;;18.70;74.00;;;;;;5093377;28;20099;-77
2021/10/01 11:16:12;;;;;;;4.30;1.23;;;18.70;74.10;;;;;;5093561;28;20372;-76
2021/10/01 11:18:44;;;;;;;3.70;1.00;;;18.70;74.30;;;;;;5093009;28;20046;-75
2021/10/01 11:21:27;;;;;;;4.28;1.35;;;18.60;74.30;;;;;;5093665;28;20024;-76
2021/10/01 11:23:56;;;;;;;3.75;1.10;;;18.70;74.50;;;;;;5093465;28;20032;-76
2021/10/01 11:26:27;;;;;;;4.10;1.40;;;18.70;74.40;;;;;;5090162;28;20396;-75
2021/10/01 11:28:52;;;;;;;13.88;2.45;;;18.60;74.40;;;;;;5092367;28;20036;-76
2021/10/01 11:31:18;;;;;;;7.68;1.67;;;18.70;74.80;;;;;;5092874;28;20047;-76
2021/10/01 11:33:51;;;;;;;6.78;1.60;;;18.70;76.10;;;;;;5093618;28;20021;-76
2021/10/01 11:36:24;;;;;;;9.45;2.05;;;18.70;77.50;;;;;;5092580;28;20129;-76
2021/10/01 11:38:49;;;;;;;6.60;1.85;;;18.70;78.60;;;;;;5091339;28;20414;-76
2021/10/01 11:41:17;;;;;;;9.68;1.55;;;18.70;80.40;;;;;;5092712;28;20020;-77
2021/10/01 11:43:51;;;;;;;10.98;1.60;;;18.70;80.90;;;;;;5093447;28;20020;-78
2021/10/01 11:46:38;;;;;;;5.32;1.33;;;18.70;80.20;;;;;;5093366;28;20105;-78
2021/10/01 11:49:16;;;;;;;5.22;1.05;;;18.70;79.60;;;;;;5092990;28;20028;-77
2021/10/01 11:51:56;;;;;;;7.45;1.20;;;18.70;80.10;;;;;;5093080;28;20028;-75
2021/10/01 11:54:22;;;;;;;5.78;1.42;;;18.70;79.20;;;;;;5092639;28;20020;-75
2021/10/01 11:56:57;;;;;;;5.25;1.20;;;18.70;78.80;;;;;;5092648;28;20032;-75
2021/10/01 11:59:25;;;;;;;8.23;2.13;;;18.70;78.60;;;;;;5092755;28;20398;-77
2021/10/01 12:01:58;;;;;;;6.97;1.40;;;18.70;78.70;;;;;;5092852;28;20472;-76
2021/10/01 12:04:34;;;;;;;6.03;1.17;;;18.70;78.70;;;;;;5092675;28;20022;-76
2021/10/01 12:07:06;;;;;;;6.55;1.15;;;18.80;78.60;;;;;;5092503;28;20028;-75
2021/10/01 12:09:33;;;;;;;3.58;1.15;;;18.80;78.40;;;;;;5092215;28;20081;-75
2021/10/01 12:12:06;;;;;;;7.00;1.33;;;18.80;78.30;;;;;;5092586;28;20032;-75
2021/10/01 12:14:32;;;;;;;4.50;0.90;;;18.80;78.10;;;;;;5092288;28;20107;-75
2021/10/01 12:17:04;;;;;;;2.72;0.80;;;18.80;78.10;;;;;;5092279;28;20099;-75
2021/10/01 12:19:30;;;;;;;6.70;1.13;;;18.80;77.80;;;;;;5092227;28;20021;-74
2021/10/01 12:22:03;;;;;;;2.92;0.95;;;18.80;77.90;;;;;;5092088;28;20028;-75
2021/10/01 12:24:50;;;;;;;4.43;1.70;;;18.80;77.90;;;;;;5092058;28;20020;-74
2021/10/01 12:27:17;;;;;;;5.70;0.60;;;18.80;77.80;;;;;;5092500;28;20099;-76
2021/10/01 12:29:51;;;;;;;4.97;0.80;;;18.80;77.80;;;;;;5092300;28;20031;-76
2021/10/01 12:32:18;;;;;;;3.83;0.82;;;18.80;77.80;;;;;;5091977;28;20376;-76
2021/10/01 12:34:56;;;;;;;4.05;1.02;;;18.80;77.80;;;;;;5092402;28;20035;-75
2021/10/01 12:37:24;;;;;;;3.70;1.05;;;18.80;77.70;;;;;;5091801;28;20066;-75
2021/10/01 12:39:56;;;;;;;3.05;0.80;;;18.80;77.70;;;;;;5092177;28;20065;-76
2021/10/01 12:42:30;;;;;;;4.28;1.00;;;18.80;77.70;;;;;;5091857;28;20024;-75
2021/10/01 12:45:12;;;;;;;3.60;0.70;;;18.80;77.80;;;;;;5090522;28;20024;-76
2021/10/01 12:47:41;;;;;;;3.88;1.10;;;18.80;77.70;;;;;;5090636;28;20028;-76
2021/10/01 12:50:11;;;;;;;4.50;1.00;;;18.80;77.70;;;;;;5090532;28;20032;-76
2021/10/01 12:52:38;;;;;;;3.92;1.05;;;18.70;77.70;;;;;;5090315;28;20093;-76
2021/10/01 12:55:09;;;;;;;2.35;0.80;;;18.70;77.80;;;;;;5091516;28;20335;-76
2021/10/01 12:57:46;;;;;;;3.97;1.45;;;18.70;77.70;;;;;;5090173;28;20054;-74
2021/10/01 13:00:27;;;;;;;2.67;0.80;;;18.70;77.60;;;;;;5091760;28;20043;-75
2021/10/01 13:03:02;;;;;;;2.83;0.80;;;18.70;77.50;;;;;;5091539;28;20012;-76
2021/10/01 13:05:35;;;;;;;8.13;1.33;;;18.70;77.70;;;;;;5091454;28;20537;-75
2021/10/01 13:08:03;;;;;;;2.33;0.80;;;18.70;77.60;;;;;;5091531;28;20095;-75
2021/10/01 13:10:37;;;;;;;2.53;0.70;;;18.70;77.70;;;;;;5091152;28;20471;-74
2021/10/01 13:13:06;;;;;;;2.65;0.70;;;18.70;77.70;;;;;;5091505;28;20020;-76
2021/10/01 13:15:41;;;;;;;2.03;0.63;;;18.70;77.70;;;;;;5091216;28;20027;-76
2021/10/01 13:18:19;;;;;;;2.65;0.70;;;18.70;77.80;;;;;;5091057;28;20107;-76
2021/10/01 13:21:02;;;;;;;2.53;0.80;;;18.70;77.70;;;;;;5091689;28;20106;-76
2021/10/01 13:23:44;;;;;;;2.88;0.95;;;18.70;77.90;;;;;;5091125;28;20024;-76
2021/10/01 13:26:10;;;;;;;3.05;0.60;;;18.70;77.90;;;;;;5091038;28;20376;-76
2021/10/01 13:28:35;;;;;;;3.10;0.82;;;18.70;77.90;;;;;;5090593;28;20024;-76
2021/10/01 13:31:01;;;;;;;1.35;0.63;;;18.70;77.90;;;;;;5091083;28;20039;-76
2021/10/01 13:33:27;;;;;;;4.57;1.17;;;18.70;78.10;;;;;;5090996;28;20016;-74
2021/10/01 13:35:55;;;;;;;2.55;0.77;;;18.70;78.10;;;;;;5090629;28;20062;-76
2021/10/01 13:38:27;;;;;;;1.98;0.80;;;18.70;78.20;;;;;;5090826;28;20024;-76
2021/10/01 13:40:53;;;;;;;2.17;0.77;;;18.70;78.20;;;;;;5091272;28;20103;-77
2021/10/01 13:43:19;;;;;;;2.58;0.90;;;18.70;78.20;;;;;;5090524;28;20024;-77
2021/10/01 13:45:45;;;;;;;2.10;0.73;;;18.70;78.40;;;;;;5091346;28;20081;-76
2021/10/01 13:48:12;;;;;;;2.60;0.77;;;18.70;78.40;;;;;;5090839;28;20073;-77
2021/10/01 13:50:38;;;;;;;2.15;0.60;;;18.70;78.50;;;;;;5090769;28;20024;-76
2021/10/01 13:53:04;;;;;;;3.20;0.65;;;18.70;78.50;;;;;;5090711;28;20047;-75
2021/10/01 13:55:29;;;;;;;6.00;0.80;;;18.70;78.60;;;;;;5090721;28;20047;-77
2021/10/01 13:57:55;;;;;;;4.43;1.08;;;18.70;78.60;;;;;;5092028;28;20028;-76
2021/10/01 14:00:23;;;;;;;2.58;0.70;;;18.70;78.50;;;;;;5094801;28;20028;-76
2021/10/01 14:02:48;;;;;;;3.63;0.70;;;18.70;78.50;;;;;;5093852;28;20111;-74
2021/10/01 14:05:15;;;;;;;3.63;1.20;;;18.70;78.50;;;;;;5095488;28;20154;-74
2021/10/01 14:07:41;;;;;;;3.50;0.70;;;18.70;78.60;;;;;;5094068;28;20433;-76
2021/10/01 14:10:17;;;;;;;3.42;0.95;;;18.70;78.60;;;;;;5094810;28;20040;-76
2021/10/01 14:12:43;;;;;;;;;;;18.70;78.70;;;;;;5096067;28;20051;-75
2021/10/01 14:15:10;;;;;;;1.90;0.50;;;18.70;78.80;;;;;;5095321;28;19904;-75
2021/10/01 14:17:37;;;;;;;2.60;1.10;;;18.70;78.80;;;;;;5094830;28;20021;-76
2021/10/01 14:20:03;;;;;;;4.85;0.70;;;18.70;78.90;;;;;;5091807;28;20019;-76
2021/10/01 14:22:29;;;;;;;3.03;1.08;;;18.70;78.90;;;;;;5092688;28;20142;-76
2021/10/01 14:24:54;;;;;;;2.08;0.60;;;18.70;78.90;;;;;;5093223;28;20437;-76
2021/10/01 14:27:20;;;;;;;2.08;0.73;;;18.70;79.00;;;;;;5093040;28;20491;-76
2021/10/01 14:29:46;;;;;;;1.92;0.60;;;18.70;79.10;;;;;;5093327;28;20503;-76
2021/10/01 14:32:11;;;;;;;1.95;0.73;;;18.70;79.00;;;;;;5093234;28;20032;-76